createdAt,value
2022-09-05T00:00:12.403Z,101898.28
2022-09-05T00:02:50.027Z,101888.09
2022-09-05T00:05:31.833Z,101892.41
2022-09-05T00:08:14.640Z,101891.56
2022-09-05T00:11:41.125Z,101886.88
2022-09-05T00:14:07.604Z,101885.00
2022-09-05T00:16:59.066Z,101890.34
2022-09-05T00:24:17.619Z,101889.81
2022-09-05T00:24:37.404Z,101886.03
2022-09-05T00:26:25.041Z,101886.56
2022-09-05T00:29:11.482Z,101883.47
2022-09-05T00:31:56.786Z,101883.13
2022-09-05T00:34:48.116Z,101880.72
2022-09-05T00:37:27.755Z,101883.16
2022-09-05T00:40:18.456Z,101888.00
2022-09-05T00:42:49.572Z,101865.25
2022-09-05T00:45:25.290Z,101881.94
2022-09-05T00:48:03.123Z,101883.00
2022-09-05T00:50:42.116Z,101881.44
2022-09-05T00:53:21.477Z,101881.13
2022-09-05T00:56:18.124Z,101871.81
2022-09-05T00:59:11.370Z,101868.91
2022-09-05T01:01:48.059Z,101872.69
2022-09-05T01:05:06.555Z,101878.78
2022-09-05T01:07:48.140Z,101874.28
2022-09-05T01:10:31.294Z,101879.47
2022-09-05T01:13:40.477Z,101868.75
2022-09-05T01:16:22.957Z,101854.97
2022-09-05T01:19:15.861Z,101866.88
2022-09-05T01:21:59.614Z,101875.50
2022-09-05T01:24:57.238Z,101879.81
2022-09-05T01:28:59.952Z,101867.56
2022-09-05T01:31:07.054Z,101871.03
2022-09-05T01:33:55.289Z,101870.16
2022-09-05T01:36:49.492Z,101875.00
2022-09-05T01:40:14.549Z,101867.41
2022-09-05T01:42:39.230Z,101866.72
2022-09-05T01:45:39.240Z,101863.94
2022-09-05T01:48:21.925Z,101875.00
2022-09-05T01:51:29.251Z,101873.09
2022-09-05T01:54:27.142Z,101877.09
2022-09-05T01:57:22.817Z,101871.88
2022-09-05T02:00:04.403Z,101869.47
2022-09-05T02:02:50.906Z,101873.75
2022-09-05T02:05:48.974Z,101879.13
2022-09-05T02:08:16.001Z,101873.97
2022-09-05T02:10:48.553Z,101866.53
2022-09-05T02:13:36.169Z,101849.81
2022-09-05T02:16:17.873Z,101867.91
2022-09-05T02:19:09.225Z,101868.06
2022-09-05T02:21:56.153Z,101877.41
2022-09-05T02:24:33.118Z,101872.06
2022-09-05T02:27:31.772Z,101877.94
2022-09-05T02:30:13.401Z,101871.72
2022-09-05T02:32:54.339Z,101881.19
2022-09-05T02:35:59.818Z,101877.94
2022-09-05T02:40:42.775Z,101879.13
2022-09-05T02:45:06.890Z,101879.47
2022-09-05T02:45:24.229Z,101877.75
2022-09-05T02:48:14.744Z,101879.63
2022-09-05T02:54:41.540Z,101890.47
2022-09-05T02:57:41.150Z,101881.00
2022-09-05T02:58:05.497Z,101887.72
2022-09-05T02:59:36.326Z,101882.19
2022-09-05T03:02:26.368Z,101877.00
2022-09-05T03:05:21.928Z,101887.34
2022-09-05T03:08:03.803Z,101886.66
2022-09-05T03:10:54.214Z,101884.59
2022-09-05T03:13:53.847Z,101878.91
2022-09-05T03:16:47.116Z,101884.59
2022-09-05T03:19:37.750Z,101877.66
2022-09-05T03:22:36.874Z,101884.41
2022-09-05T03:25:22.642Z,101886.59
2022-09-05T03:28:13.575Z,101891.25
2022-09-05T03:31:23.458Z,101874.53
2022-09-05T03:33:58.855Z,101878.66
2022-09-05T03:36:27.977Z,101886.88
2022-09-05T03:39:14.732Z,101886.56
2022-09-05T03:41:41.168Z,101891.22
2022-09-05T03:44:10.029Z,101885.50
2022-09-05T03:47:17.935Z,101880.63
2022-09-05T03:54:00.641Z,101877.19
2022-09-05T03:57:15.450Z,101879.22
2022-09-05T03:57:16.380Z,101874.06
2022-09-05T03:59:09.111Z,101874.56
2022-09-05T04:07:03.597Z,101871.03
2022-09-05T04:08:10.455Z,101875.00
2022-09-05T04:08:28.208Z,101883.59
2022-09-05T04:10:31.708Z,101879.84
2022-09-05T04:13:08.817Z,101888.63
2022-09-05T04:15:42.077Z,101876.88
2022-09-05T04:18:33.423Z,101892.03
2022-09-05T04:21:09.229Z,101891.00
2022-09-05T04:24:07.081Z,101873.06
2022-09-05T04:27:11.387Z,101885.66
2022-09-05T04:30:38.224Z,101889.59
2022-09-05T04:33:17.753Z,101888.03
2022-09-05T04:36:10.430Z,101887.97
2022-09-05T04:38:45.197Z,101885.53
2022-09-05T04:41:39.492Z,101880.91
2022-09-05T04:44:33.025Z,101888.28
2022-09-05T04:47:05.467Z,101895.50
2022-09-05T04:49:37.820Z,101902.00
2022-09-05T04:52:14.811Z,101896.03
2022-09-05T04:55:10.590Z,101904.06
2022-09-05T04:57:50.577Z,101905.50
2022-09-05T05:06:04.551Z,101891.00
2022-09-05T05:06:09.938Z,101896.81
2022-09-05T05:06:47.829Z,101905.81
2022-09-05T05:09:34.930Z,101901.97
2022-09-05T05:17:53.919Z,101893.22
2022-09-05T05:18:10.724Z,101894.06
2022-09-05T05:18:40.966Z,101879.41
2022-09-05T05:21:07.847Z,101906.72
2022-09-05T05:23:34.405Z,101904.13
2022-09-05T05:26:04.710Z,101913.63
2022-09-05T05:28:53.173Z,101913.69
2022-09-05T05:31:28.517Z,101916.97
2022-09-05T05:34:00.114Z,101905.16
2022-09-05T05:36:40.553Z,101906.69
2022-09-05T05:39:16.182Z,101905.19
2022-09-05T05:41:51.161Z,101909.72
2022-09-05T05:44:22.769Z,101899.06
2022-09-05T05:47:00.705Z,101906.00
2022-09-05T05:49:49.370Z,101909.69
2022-09-05T05:52:38.273Z,101905.34
2022-09-05T05:55:52.771Z,101903.66
2022-09-05T05:58:50.540Z,101898.25
2022-09-05T06:01:48.019Z,101898.50
2022-09-05T06:05:06.052Z,101880.47
2022-09-05T06:08:57.292Z,101901.66
2022-09-05T06:14:49.418Z,101908.50
2022-09-05T06:15:05.412Z,101929.47
2022-09-05T06:17:13.137Z,101924.63
2022-09-05T06:22:04.172Z,101929.25
2022-09-05T06:23:17.426Z,101932.88
2022-09-05T06:26:05.915Z,101936.72
2022-09-05T06:28:38.776Z,101943.53
2022-09-05T06:31:34.949Z,101935.00
2022-09-05T06:34:36.113Z,101927.72
2022-09-05T06:37:30.456Z,101925.41
2022-09-05T06:40:32.008Z,101914.53
2022-09-05T06:43:31.768Z,101917.13
2022-09-05T06:46:24.053Z,101917.31
2022-09-05T06:49:46.135Z,101922.00
2022-09-05T06:52:58.035Z,101915.53
2022-09-05T06:55:43.212Z,101908.50
2022-09-05T06:58:45.025Z,101907.44
2022-09-05T07:01:14.202Z,101914.72
2022-09-05T07:04:33.315Z,101898.84
2022-09-05T07:07:01.566Z,101917.81
2022-09-05T07:09:37.943Z,101918.66
2022-09-05T07:12:17.888Z,101917.91
2022-09-05T07:15:08.619Z,101910.97
2022-09-05T07:18:17.052Z,101902.63
2022-09-05T07:21:17.438Z,101911.13
2022-09-05T07:24:08.866Z,101926.13
2022-09-05T07:26:54.245Z,101920.97
2022-09-05T07:29:33.823Z,101915.34
2022-09-05T07:32:03.221Z,101921.69
2022-09-05T07:34:32.213Z,101927.59
2022-09-05T07:37:15.285Z,101918.56
2022-09-05T07:39:58.386Z,101927.31
2022-09-05T07:42:53.691Z,101932.19
2022-09-05T07:45:41.879Z,101933.47
2022-09-05T07:48:34.622Z,101935.38
2022-09-05T07:56:49.703Z,101943.59
2022-09-05T07:56:56.435Z,101944.34
2022-09-05T07:59:41.350Z,101944.63
2022-09-05T08:02:11.444Z,101946.06
2022-09-05T08:04:41.819Z,101943.59
2022-09-05T08:07:49.086Z,101941.47
2022-09-05T08:10:10.471Z,101940.28
2022-09-05T08:13:24.692Z,101938.75
2022-09-05T08:16:00.689Z,101930.38
2022-09-05T08:18:50.335Z,101926.72
2022-09-05T08:21:39.268Z,101920.75
2022-09-05T08:24:25.213Z,101917.81
2022-09-05T08:27:04.235Z,101923.44
2022-09-05T08:29:39.071Z,101932.66
2022-09-05T08:32:13.577Z,101937.56
2022-09-05T08:34:44.134Z,101945.66
2022-09-05T08:37:21.171Z,101944.94
2022-09-05T08:40:10.595Z,101945.84
2022-09-05T08:44:13.567Z,101948.50
2022-09-05T08:46:39.569Z,101934.13
2022-09-05T08:49:37.004Z,101927.69
2022-09-05T08:52:26.548Z,101928.78
2022-09-05T08:55:51.956Z,101930.28
2022-09-05T08:59:28.271Z,101929.50
2022-09-05T09:02:47.284Z,101920.66
2022-09-05T09:05:58.113Z,101925.19
2022-09-05T09:09:13.692Z,101922.94
2022-09-05T09:11:55.213Z,101912.47
2022-09-05T09:14:51.207Z,101923.97
2022-09-05T09:17:46.474Z,101910.50
2022-09-05T09:20:45.021Z,101903.09
2022-09-05T09:23:41.094Z,101918.50
2022-09-05T09:26:29.146Z,101912.81
2022-09-05T09:29:12.455Z,101902.91
2022-09-05T09:31:50.814Z,101898.63
2022-09-05T09:34:26.342Z,101900.94
2022-09-05T09:37:25.464Z,101904.97
2022-09-05T09:40:26.512Z,101901.47
2022-09-05T09:43:18.095Z,101895.53
2022-09-05T09:45:52.159Z,101903.75
2022-09-05T09:48:36.948Z,101899.78
2022-09-05T09:51:26.992Z,101887.34
2022-09-05T09:54:12.321Z,101891.03
2022-09-05T09:57:00.552Z,101894.69
2022-09-05T09:59:54.511Z,101892.16
2022-09-05T10:04:54.275Z,101896.41
2022-09-05T10:10:45.545Z,101888.47
2022-09-05T10:10:50.598Z,101889.91
2022-09-05T10:12:10.200Z,101891.31
2022-09-05T10:15:01.905Z,101879.34
2022-09-05T10:18:07.569Z,101894.28
2022-09-05T10:21:16.398Z,101877.81
2022-09-05T10:23:54.235Z,101879.44
2022-09-05T10:26:51.701Z,101871.97
2022-09-05T10:29:43.657Z,101870.59
2022-09-05T10:35:11.262Z,101863.59
2022-09-05T10:35:22.338Z,101862.44
2022-09-05T10:38:10.359Z,101860.81
2022-09-05T10:41:08.139Z,101860.31
2022-09-05T10:43:30.028Z,101849.81
2022-09-05T10:45:56.674Z,101858.31
2022-09-05T10:48:40.621Z,101847.75
2022-09-05T10:51:29.741Z,101846.63
2022-09-05T10:54:11.597Z,101858.56
2022-09-05T10:56:45.094Z,101857.50
2022-09-05T11:02:19.024Z,101843.72
2022-09-05T11:02:47.208Z,101846.56
2022-09-05T11:05:28.401Z,101846.91
2022-09-05T11:08:21.427Z,101841.50
2022-09-05T11:11:28.429Z,101836.72
2022-09-05T11:14:26.337Z,101835.28
2022-09-05T11:17:04.897Z,101824.78
2022-09-05T11:19:52.158Z,101815.19
2022-09-05T11:22:23.907Z,101821.34
2022-09-05T11:24:56.845Z,101824.47
2022-09-05T11:27:40.759Z,101827.53
2022-09-05T11:30:29.215Z,101829.47
2022-09-05T11:39:45.821Z,101823.50
2022-09-05T11:39:57.409Z,101823.19
2022-09-05T11:40:09.798Z,101827.38
2022-09-05T11:42:26.964Z,101808.72
2022-09-05T11:45:15.372Z,101810.03
2022-09-05T11:48:06.907Z,101818.75
2022-09-05T11:50:42.374Z,101812.75
2022-09-05T11:53:34.889Z,101812.94
2022-09-05T11:56:13.815Z,101813.47
2022-09-05T11:59:33.121Z,101818.78
2022-09-05T12:02:30.464Z,101812.72
2022-09-05T12:05:49.647Z,101810.97
2022-09-05T12:08:30.767Z,101817.19
2022-09-05T12:11:06.413Z,101811.94
2022-09-05T12:13:56.782Z,101807.03
2022-09-05T12:16:47.496Z,101802.31
2022-09-05T12:19:40.288Z,101809.69
2022-09-05T12:22:28.794Z,101793.06
2022-09-05T12:25:25.105Z,101796.41
2022-09-05T12:29:25.955Z,101792.78
2022-09-05T12:32:19.522Z,101788.34
2022-09-05T12:35:59.509Z,101789.53
2022-09-05T12:39:33.238Z,101787.47
2022-09-05T12:41:33.647Z,101785.66
2022-09-05T12:44:36.414Z,101780.34
2022-09-05T12:46:23.926Z,101781.13
2022-09-05T12:49:06.898Z,101774.72
2022-09-05T12:51:45.750Z,101775.91
2022-09-05T12:54:33.566Z,101774.41
2022-09-05T13:02:59.164Z,101773.06
2022-09-05T13:03:02.089Z,101762.91
2022-09-05T13:03:28.008Z,101776.75
2022-09-05T13:05:59.183Z,101775.50
2022-09-05T13:08:38.003Z,101770.50
2022-09-05T13:14:58.749Z,101766.00
2022-09-05T13:15:03.003Z,101760.22
2022-09-05T13:16:52.820Z,101755.81
2022-09-05T13:19:32.480Z,101753.84
2022-09-05T13:22:02.282Z,101759.00
2022-09-05T13:24:35.056Z,101757.81
2022-09-05T13:27:08.672Z,101761.63
2022-09-05T13:30:54.842Z,101753.22
2022-09-05T13:38:03.801Z,101753.38
2022-09-05T13:38:07.593Z,101754.44
2022-09-05T13:38:47.546Z,101746.06
2022-09-05T13:41:34.559Z,101753.03
2022-09-05T13:44:26.635Z,101741.13
2022-09-05T13:47:29.328Z,101747.91
2022-09-05T13:50:20.286Z,101740.09
2022-09-05T13:53:14.824Z,101738.84
2022-09-05T13:55:54.075Z,101730.34
2022-09-05T13:58:36.247Z,101734.28
2022-09-05T14:02:25.410Z,101725.22
2022-09-05T14:07:51.409Z,101730.53
2022-09-05T14:10:39.374Z,101727.41
2022-09-05T14:13:50.523Z,101727.97
2022-09-05T14:16:47.899Z,101717.22
2022-09-05T14:19:43.428Z,101721.50
2022-09-05T14:22:22.420Z,101714.16
2022-09-05T14:24:52.942Z,101720.06
2022-09-05T14:27:30.373Z,101707.69
2022-09-05T14:30:09.364Z,101706.31
2022-09-05T14:37:46.277Z,101712.53
2022-09-05T14:38:00.544Z,101705.47
2022-09-05T14:39:15.541Z,101702.66
2022-09-05T14:42:07.456Z,101705.19
2022-09-05T14:44:58.417Z,101695.03
2022-09-05T14:47:36.368Z,101695.03
2022-09-05T14:50:17.675Z,101693.91
2022-09-05T14:56:32.004Z,101670.41
2022-09-05T15:02:39.426Z,101679.72
2022-09-05T15:02:51.879Z,101670.38
2022-09-05T15:04:45.350Z,101666.72
2022-09-05T15:07:16.313Z,101669.56
2022-09-05T15:12:15.503Z,101678.63
2022-09-05T15:12:39.625Z,101667.59
2022-09-05T15:15:19.128Z,101669.00
2022-09-05T15:17:50.414Z,101654.84
2022-09-05T15:20:42.482Z,101646.69
2022-09-05T15:23:16.859Z,101645.53
2022-09-05T15:25:51.038Z,101660.78
2022-09-05T15:28:31.576Z,101661.94
2022-09-05T15:31:02.221Z,101657.94
2022-09-05T15:33:31.270Z,101652.03
2022-09-05T15:35:59.625Z,101644.34
2022-09-05T15:38:54.318Z,101650.84
2022-09-05T15:41:29.786Z,101639.53
2022-09-05T15:44:12.968Z,101642.63
2022-09-05T15:46:43.385Z,101646.56
2022-09-05T15:49:32.100Z,101647.13
2022-09-05T15:52:06.587Z,101656.13
2022-09-05T15:54:40.569Z,101654.41
2022-09-05T15:57:17.464Z,101650.16
2022-09-05T15:59:48.982Z,101642.00
2022-09-05T16:02:25.817Z,101633.81
2022-09-05T16:10:27.441Z,101644.22
2022-09-05T16:10:45.379Z,101640.56
2022-09-05T16:11:19.750Z,101630.03
2022-09-05T16:13:52.151Z,101623.78
2022-09-05T16:23:18.845Z,101626.03
2022-09-05T16:23:26.204Z,101623.47
2022-09-05T16:23:38.038Z,101629.03
2022-09-05T16:25:28.285Z,101629.56
2022-09-05T16:28:04.165Z,101623.03
2022-09-05T16:30:36.212Z,101626.00
2022-09-05T16:33:28.699Z,101613.28
2022-09-05T16:35:58.390Z,101615.44
2022-09-05T16:38:49.708Z,101615.06
2022-09-05T16:41:40.335Z,101618.63
2022-09-05T16:44:30.023Z,101625.53
2022-09-05T16:47:27.236Z,101628.00
2022-09-05T16:50:33.595Z,101631.34
2022-09-05T16:53:30.836Z,101623.66
2022-09-05T16:56:04.132Z,101611.78
2022-09-05T16:58:33.334Z,101623.81
2022-09-05T17:01:22.015Z,101617.81
2022-09-05T17:03:48.594Z,101610.94
2022-09-05T17:06:26.346Z,101606.63
2022-09-05T17:09:12.454Z,101591.28
2022-09-05T17:12:00.693Z,101601.38
2022-09-05T17:14:39.265Z,101595.38
2022-09-05T17:18:20.609Z,101597.56
2022-09-05T17:20:14.508Z,101600.59
2022-09-05T17:27:51.172Z,101589.44
2022-09-05T17:29:27.404Z,101602.78
2022-09-05T17:29:32.754Z,101607.63
2022-09-05T17:31:56.953Z,101608.28
2022-09-05T17:34:49.757Z,101608.13
2022-09-05T17:37:44.049Z,101601.25
2022-09-05T17:40:36.627Z,101607.84
2022-09-05T17:43:29.968Z,101610.44
2022-09-05T17:46:21.433Z,101613.13
2022-09-05T17:49:16.227Z,101613.56
2022-09-05T17:51:34.609Z,101608.94
2022-09-05T17:54:08.078Z,101610.81
2022-09-05T17:56:39.968Z,101608.78
2022-09-05T17:59:22.161Z,101606.41
2022-09-05T18:02:03.877Z,101599.63
2022-09-05T18:04:51.261Z,101601.97
2022-09-05T18:07:26.726Z,101607.25
2022-09-05T18:10:14.838Z,101604.88
2022-09-05T18:13:13.054Z,101610.13
2022-09-05T18:15:34.899Z,101622.47
2022-09-05T18:18:24.274Z,101617.09
2022-09-05T18:21:21.666Z,101632.22
2022-09-05T18:24:04.508Z,101662.63
2022-09-05T18:26:44.662Z,101659.16
2022-09-05T18:29:58.668Z,101667.63
2022-09-05T18:32:46.543Z,101674.16
2022-09-05T18:35:32.429Z,101691.56
2022-09-05T18:38:04.230Z,101704.13
2022-09-05T18:40:59.606Z,101695.09
2022-09-05T18:43:28.852Z,101691.19
2022-09-05T18:46:15.756Z,101689.78
2022-09-05T18:50:00.318Z,101694.00
2022-09-05T18:52:17.188Z,101701.63
2022-09-05T18:55:26.694Z,101692.97
2022-09-05T18:57:58.967Z,101685.63
2022-09-05T19:00:46.888Z,101698.91
2022-09-05T19:03:31.633Z,101702.75
2022-09-05T19:06:34.550Z,101714.47
2022-09-05T19:08:56.133Z,101713.72
2022-09-05T19:11:33.448Z,101702.22
2022-09-05T19:14:26.320Z,101695.28
2022-09-05T19:17:10.014Z,101683.06
2022-09-05T19:20:30.687Z,101685.03
2022-09-05T19:23:13.475Z,101672.59
2022-09-05T19:25:44.946Z,101672.81
2022-09-05T19:35:10.115Z,101660.59
2022-09-05T19:37:03.122Z,101669.59
2022-09-05T19:37:13.890Z,101641.97
2022-09-05T19:45:48.972Z,101628.47
2022-09-05T19:47:35.372Z,101617.53
2022-09-05T19:47:41.361Z,101617.53
2022-09-05T19:48:21.236Z,101599.50
2022-09-05T19:50:53.474Z,101589.41
2022-09-05T19:53:21.056Z,101589.16
2022-09-05T19:55:48.512Z,101599.50
2022-09-05T19:58:21.661Z,101597.53
2022-09-05T20:01:00.889Z,101608.63
2022-09-05T20:03:28.117Z,101605.00
2022-09-05T20:05:58.368Z,101613.75
2022-09-05T20:08:35.216Z,101614.41
2022-09-05T20:11:04.658Z,101609.91
2022-09-05T20:13:33.762Z,101617.59
2022-09-05T20:16:10.694Z,101617.38
2022-09-05T20:18:40.331Z,101621.84
2022-09-05T20:21:15.986Z,101627.44
2022-09-05T20:23:48.304Z,101624.63
2022-09-05T20:26:18.286Z,101631.31
2022-09-05T20:28:52.697Z,101639.09
2022-09-05T20:31:27.266Z,101643.84
2022-09-05T20:35:15.986Z,101634.94
2022-09-05T20:43:08.155Z,101635.31
2022-09-05T20:43:20.806Z,101630.81
2022-09-05T20:43:31.715Z,101626.09
2022-09-05T20:45:43.505Z,101639.00
2022-09-05T20:54:06.392Z,101663.69
2022-09-05T20:54:16.039Z,101708.09
2022-09-05T20:54:20.541Z,101703.09
2022-09-05T20:56:36.517Z,101703.06
2022-09-05T20:59:03.181Z,101702.94
2022-09-05T21:01:33.823Z,101667.19
2022-09-05T21:04:03.188Z,101674.75
2022-09-05T21:06:37.126Z,101666.22
2022-09-05T21:09:25.254Z,101696.03
2022-09-05T21:11:54.959Z,101713.84
2022-09-05T21:14:26.497Z,101739.53
2022-09-05T21:17:00.565Z,101731.84
2022-09-05T21:19:35.205Z,101723.69
2022-09-05T21:22:22.325Z,101734.31
2022-09-05T21:25:08.299Z,101725.13
2022-09-05T21:27:35.077Z,101721.88
2022-09-05T21:30:22.014Z,101718.44
2022-09-05T21:32:53.569Z,101704.94
2022-09-05T21:35:35.197Z,101713.28
2022-09-05T21:38:02.327Z,101706.41
2022-09-05T21:40:28.930Z,101699.13
2022-09-05T21:47:34.888Z,101692.03
2022-09-05T21:47:43.440Z,101690.09
2022-09-05T21:48:34.828Z,101681.50
2022-09-05T21:51:10.505Z,101656.41
2022-09-05T21:56:50.267Z,101669.91
2022-09-05T21:59:17.319Z,101658.09
2022-09-05T22:02:08.525Z,101655.50
2022-09-05T22:04:41.087Z,101659.38
2022-09-05T22:07:12.901Z,101663.00
2022-09-05T22:09:39.502Z,101668.78
2022-09-05T22:12:28.309Z,101671.34
2022-09-05T22:14:55.021Z,101664.94
2022-09-05T22:17:25.346Z,101672.59
2022-09-05T22:19:52.610Z,101660.41
2022-09-05T22:22:20.420Z,101673.25
2022-09-05T22:24:52.272Z,101681.53
2022-09-05T22:27:20.646Z,101681.91
2022-09-05T22:29:51.738Z,101713.38
2022-09-05T22:32:34.966Z,101737.72
2022-09-05T22:35:27.755Z,101761.84
2022-09-05T22:37:59.415Z,101762.00
2022-09-05T22:40:30.827Z,101756.44
2022-09-05T22:43:05.762Z,101742.34
2022-09-05T22:45:34.717Z,101746.66
2022-09-05T22:48:11.310Z,101739.13
2022-09-05T22:50:38.714Z,101731.16
2022-09-05T22:53:07.332Z,101733.88
2022-09-05T22:55:34.952Z,101727.00
2022-09-05T22:58:05.321Z,101732.72
2022-09-05T23:00:34.784Z,101729.47
2022-09-05T23:03:04.049Z,101729.66
2022-09-05T23:05:32.742Z,101734.28
2022-09-05T23:08:00.803Z,101727.81
2022-09-05T23:10:30.574Z,101720.09
2022-09-05T23:13:00.346Z,101726.63
2022-09-05T23:15:26.992Z,101724.69
2022-09-05T23:17:59.023Z,101686.19
2022-09-05T23:20:28.420Z,101664.84
2022-09-05T23:22:55.518Z,101640.28
2022-09-05T23:25:23.101Z,101612.03
2022-09-05T23:27:50.472Z,101605.50
2022-09-05T23:30:17.882Z,101614.22
2022-09-05T23:32:48.987Z,101596.94
2022-09-05T23:35:16.516Z,101581.75
2022-09-05T23:37:47.172Z,101578.78
2022-09-05T23:40:21.830Z,101567.41
2022-09-05T23:42:52.081Z,101574.22
2022-09-05T23:45:19.328Z,101572.22
2022-09-05T23:47:46.139Z,101563.88
2022-09-05T23:50:13.561Z,101559.38
2022-09-05T23:52:41.176Z,101554.53
2022-09-05T23:55:11.039Z,101545.97
2022-09-05T23:57:37.716Z,101531.06
